This is the latest recevied weather packets stored in our database for station/object OE-11049. If no packets are shown the sender has not sent any weather packets the latest 10 day(s).
| Time | Temp. | Humidity | Pressure | Rain* | Wind** | Luminosity | Snow |
|---|---|---|---|---|---|---|---|
| 1787779516 | 18.33° C | 82% | 1015.7 hPa | 0 mm | - | 0 W/m² | - |
| 1787778690 | 19.44° C | 78% | 1015.5 hPa | 0 mm | - | 0 W/m² | - |
| 1787778323 | 18.89° C | 82% | 1015.7 hPa | 0 mm | - | 0 W/m² | - |
| 1787777717 | 18.89° C | 82% | 1015.7 hPa | 0 mm | - | 0 W/m² | - |
| 1787776890 | 20° C | 75% | 1015.5 hPa | 0 mm | - | 0 W/m² | - |
| 1787776517 | 20.56° C | 72% | 1015.4 hPa | 0 mm | - | 0 W/m² | - |
| 1787775917 | 20.56° C | 73% | 1015.4 hPa | 0 mm | - | 0 W/m² | - |
| 1787775091 | 20.56° C | 73% | 1015.5 hPa | 0 mm | - | 0 W/m² | - |
| 1787774717 | 20.56° C | 73% | 1015.5 hPa | 0 mm | - | 0 W/m² | - |
| 1787774117 | 20.56° C | 75% | 1015.6 hPa | 0 mm | - | 0 W/m² | - |
| 1787773290 | 20.56° C | 76% | 1015.6 hPa | 0 mm | - | 0 W/m² | - |
| 1787772917 | 20.56° C | 76% | 1015.5 hPa | 0 mm | - | 0 W/m² | - |
| 1787772317 | 20.56° C | 75% | 1015.4 hPa | 0 mm | - | 0 W/m² | - |
| 1787771490 | 21.11° C | 73% | 1015.4 hPa | 0 mm | - | 0 W/m² | - |
| 1787771117 | 21.11° C | 74% | 1015.4 hPa | 0 mm | - | 0 W/m² | - |
| 1787770517 | 21.67° C | 72% | 1015.3 hPa | 0 mm | - | 0 W/m² | - |
| 1787769690 | 21.67° C | 71% | 1015.2 hPa | 0 mm | - | 0 W/m² | - |
| 1787769317 | 22.22° C | 68% | 1015 hPa | 0 mm | - | 0 W/m² | - |
| 1787768717 | 22.78° C | 67% | 1014.9 hPa | 0 mm | - | 0 W/m² | - |
| 1787767891 | 23.33° C | 65% | 1014.8 hPa | 0 mm | - | 6 W/m² | - |
| 1787767516 | 23.33° C | 64% | 1014.6 hPa | 0 mm | - | 18 W/m² | - |
| 1787766917 | 23.89° C | 62% | 1014.5 hPa | 0 mm | - | 29 W/m² | - |
| 1787766090 | 23.89° C | 60% | 1014.4 hPa | 0 mm | - | 58 W/m² | - |
| 1787765717 | 24.44° C | 58% | 1014.4 hPa | 0 mm | - | 53 W/m² | - |
| 1787765116 | 24.44° C | 59% | 1014.4 hPa | 0 mm | - | 76 W/m² | - |
* Rain latest hour (hover to see other rain measurements)
** Current wind speed in m/s (hover to see current wind gust speed)